Time;durP1;ratioP1;P1;durP2;ratioP2;P2;SDS_P1;SDS_P2;PMS_P1;PMS_P2;Temp;Humidity;BMP_temperature;BMP_pressure;BME280_temperature;BME280_humidity;BME280_pressure;Samples;Min_cycle;Max_cycle;Signal;HPM_P1;HPM_P2
2022/12/03 00:01:02;;;;;;;29.83;12.50;;;;;;;1.40;100.00;102670.72;7379793;19;20011;-80
2022/12/03 00:03:35;;;;;;;34.60;12.90;;;;;;;1.37;100.00;102666.22;7378589;19;20010;-80
2022/12/03 00:06:05;;;;;;;38.33;12.93;;;;;;;1.34;100.00;102662.47;7377104;19;20415;-79
2022/12/03 00:08:35;;;;;;;32.08;12.75;;;;;;;1.34;100.00;102665.06;7375703;19;20014;-81
2022/12/03 00:11:05;;;;;;;33.92;14.70;;;;;;;1.38;100.00;102660.25;7378557;19;20010;-79
2022/12/03 00:13:37;;;;;;;35.72;14.13;;;;;;;1.31;100.00;102663.16;7378108;19;20010;-81
2022/12/03 00:16:07;;;;;;;24.20;10.48;;;;;;;1.28;100.00;102666.38;7379484;19;20304;-81
2022/12/03 00:18:37;;;;;;;36.60;13.02;;;;;;;1.31;100.00;102653.72;7374692;19;20022;-79
2022/12/03 00:21:07;;;;;;;33.30;12.32;;;;;;;1.28;100.00;102661.22;7381481;19;20558;-79
2022/12/03 00:23:37;;;;;;;30.10;13.45;;;;;;;1.25;100.00;102657.47;7382573;19;20014;-78
2022/12/03 00:26:11;;;;;;;34.83;13.38;;;;;;;1.25;100.00;102660.06;7382276;19;20031;-79
2022/12/03 00:28:43;;;;;;;33.58;12.57;;;;;;;1.28;100.00;102655.16;7379140;19;20009;-78
2022/12/03 00:31:13;;;;;;;29.80;13.05;;;;;;;1.28;100.00;102649.97;7382578;19;20015;-79
2022/12/03 00:33:43;;;;;;;27.95;13.23;;;;;;;1.21;100.00;102647.69;7381211;19;20022;-79
2022/12/03 00:36:12;;;;;;;35.95;14.38;;;;;;;1.28;100.00;102644.81;7382015;19;20031;-80
2022/12/03 00:38:42;;;;;;;36.58;14.25;;;;;;;1.21;100.00;102643.41;7377727;19;20014;-76
2022/12/03 00:41:12;;;;;;;31.02;10.68;;;;;;;1.29;100.00;102650.09;7382120;19;20271;-77
2022/12/03 00:43:45;;;;;;;31.35;12.57;;;;;;;1.24;100.00;102647.94;7381976;19;20089;-76
2022/12/03 00:46:14;;;;;;;26.23;10.40;;;;;;;1.24;100.00;102648.81;7378728;19;20014;-76
2022/12/03 00:48:50;;;;;;;34.92;11.98;;;;;;;1.23;100.00;102644.44;7376116;19;20015;-75
2022/12/03 00:51:20;;;;;;;31.33;11.38;;;;;;;1.23;100.00;102640.94;7376960;19;20399;-76
2022/12/03 00:53:50;;;;;;;25.35;11.90;;;;;;;1.22;100.00;102644.31;7375901;19;20017;-76
2022/12/03 00:56:20;;;;;;;34.90;12.27;;;;;;;1.20;100.00;102643.28;7375191;19;20022;-76
2022/12/03 00:58:53;;;;;;;32.80;12.95;;;;;;;1.18;100.00;102634.50;7376821;19;20023;-77
2022/12/03 01:01:23;;;;;;;28.87;12.03;;;;;;;1.21;100.00;102642.50;7379409;19;20019;-77
2022/12/03 01:03:53;;;;;;;34.67;12.45;;;;;;;1.22;100.00;102639.16;7380542;19;20410;-76
2022/12/03 01:06:23;;;;;;;30.88;12.75;;;;;;;1.22;100.00;102628.81;7378104;19;20102;-77
2022/12/03 01:08:53;;;;;;;36.33;12.85;;;;;;;1.23;100.00;102633.19;7378856;19;20554;-77
2022/12/03 01:14:08;;;;;;;28.17;13.05;;;;;;;1.24;100.00;102640.16;7375150;19;20476;-77
2022/12/03 01:16:39;;;;;;;34.55;12.25;;;;;;;1.26;100.00;102629.16;7377042;19;20055;-77
2022/12/03 01:19:14;;;;;;;36.00;12.82;;;;;;;1.27;100.00;102628.41;7374582;19;20013;-76
2022/12/03 01:21:45;;;;;;;37.15;12.38;;;;;;;1.29;100.00;102628.50;7376997;19;20018;-77
2022/12/03 01:24:15;;;;;;;34.13;15.80;;;;;;;1.33;100.00;102624.50;7375576;19;20104;-77
2022/12/03 01:26:44;;;;;;;37.00;13.85;;;;;;;1.28;100.00;102629.28;7377615;19;20011;-78
2022/12/03 01:29:17;;;;;;;25.00;11.82;;;;;;;1.29;100.00;102621.66;7376013;19;20021;-77
2022/12/03 01:34:29;;;;;;;27.38;12.85;;;;;;;1.29;100.00;102623.34;7377889;19;20086;-76
2022/12/03 01:36:59;;;;;;;38.05;12.93;;;;;;;1.38;100.00;102623.16;7378300;19;20089;-76
2022/12/03 01:39:28;;;;;;;30.80;13.05;;;;;;;1.29;100.00;102625.94;7374004;19;20519;-76
2022/12/03 01:42:00;;;;;;;29.88;12.55;;;;;;;1.29;100.00;102618.19;7375740;19;20018;-76
2022/12/03 01:44:35;;;;;;;31.63;11.85;;;;;;;1.26;100.00;102620.53;7375673;19;20530;-75
2022/12/03 01:47:08;;;;;;;32.58;13.32;;;;;;;1.27;100.00;102618.06;7369998;19;20011;-75
2022/12/03 01:49:42;;;;;;;38.35;11.48;;;;;;;1.30;100.00;102625.16;7369149;19;20014;-80
2022/12/03 01:52:13;;;;;;;;;;;;;;;1.31;100.00;102612.34;7372914;19;20018;-80
2022/12/03 01:54:47;;;;;;;30.23;11.45;;;;;;;1.31;100.00;102614.03;7371674;19;19930;-80
2022/12/03 01:57:23;;;;;;;33.92;12.38;;;;;;;1.33;100.00;102615.06;7375484;19;20018;-80
2022/12/03 01:59:58;;;;;;;29.92;12.20;;;;;;;1.36;100.00;102610.13;7374210;19;20019;-79
2022/12/03 02:02:30;;;;;;;27.98;12.25;;;;;;;1.37;100.00;102622.25;7374889;19;20019;-80
2022/12/03 02:05:01;;;;;;;30.25;11.30;;;;;;;1.41;100.00;102615.66;7371769;19;20061;-80
2022/12/03 02:07:33;;;;;;;32.17;12.32;;;;;;;1.31;100.00;102614.03;7374369;19;20098;-80
2022/12/03 02:10:05;;;;;;;31.70;12.13;;;;;;;1.34;100.00;102619.44;7373309;19;20023;-80
2022/12/03 02:12:38;;;;;;;40.13;14.70;;;;;;;1.33;100.00;102611.56;7372520;19;20007;-80
2022/12/03 02:15:12;;;;;;;36.92;13.30;;;;;;;1.40;100.00;102613.84;7373458;19;20010;-80
2022/12/03 02:17:43;;;;;;;36.15;11.32;;;;;;;1.31;100.00;102604.59;7372650;19;20052;-80
2022/12/03 02:20:14;;;;;;;38.75;15.60;;;;;;;1.28;100.00;102616.38;7374169;19;20015;-79
2022/12/03 02:22:49;;;;;;;34.22;12.80;;;;;;;1.27;100.00;102612.88;7372741;19;20011;-80
2022/12/03 02:25:24;;;;;;;44.88;15.27;;;;;;;1.30;100.00;102609.63;7373653;19;20146;-79
2022/12/03 02:27:56;;;;;;;34.70;13.93;;;;;;;1.33;100.00;102617.63;7372344;19;20045;-79
2022/12/03 02:30:28;;;;;;;26.98;10.13;;;;;;;1.35;100.00;102616.06;7373833;19;20017;-79
2022/12/03 02:32:58;;;;;;;28.90;11.30;;;;;;;1.38;100.00;102615.41;7373929;19;20742;-81
2022/12/03 02:35:30;;;;;;;35.22;15.55;;;;;;;1.40;100.00;102608.69;7373315;19;20020;-79
2022/12/03 02:38:03;;;;;;;39.55;14.00;;;;;;;1.38;100.00;102611.16;7374910;19;20858;-79
2022/12/03 02:40:36;;;;;;;39.25;14.40;;;;;;;1.36;100.00;102615.28;7372028;19;20275;-80
2022/12/03 02:43:06;;;;;;;40.63;15.05;;;;;;;1.33;100.00;102607.28;7374420;19;20068;-80
2022/12/03 02:45:40;;;;;;;31.83;13.07;;;;;;;1.34;100.00;102605.63;7373051;19;20090;-80
2022/12/03 02:48:13;;;;;;;36.30;13.57;;;;;;;1.39;100.00;102589.69;7371288;19;20597;-79
2022/12/03 02:50:46;;;;;;;35.33;13.38;;;;;;;1.35;100.00;102610.00;7373728;19;20015;-79
2022/12/03 02:53:19;;;;;;;33.93;12.63;;;;;;;1.35;100.00;102589.31;7370073;19;20015;-80
2022/12/03 02:55:53;;;;;;;34.15;14.07;;;;;;;1.32;100.00;102600.31;7372102;19;20759;-80
2022/12/03 02:58:24;;;;;;;35.88;12.88;;;;;;;1.33;100.00;102594.38;7372198;19;20074;-80
2022/12/03 03:00:56;;;;;;;30.70;13.57;;;;;;;1.33;100.00;102586.63;7374967;19;20749;-81
2022/12/03 03:03:29;;;;;;;35.80;12.50;;;;;;;1.36;100.00;102583.38;7373274;19;20014;-79
2022/12/03 03:06:01;;;;;;;39.45;13.60;;;;;;;1.37;100.00;102580.91;7373440;19;20014;-79
2022/12/03 03:08:32;;;;;;;34.58;13.13;;;;;;;1.39;100.00;102581.94;7373177;19;20025;-78
2022/12/03 03:11:04;;;;;;;36.97;13.45;;;;;;;1.41;100.00;102582.94;7374334;19;20499;-79
2022/12/03 03:13:36;;;;;;;37.13;14.20;;;;;;;1.40;100.00;102583.72;7373112;19;20544;-79
2022/12/03 03:16:07;;;;;;;31.77;12.70;;;;;;;1.41;100.00;102582.94;7381023;19;20007;-80
2022/12/03 03:18:37;;;;;;;36.92;13.82;;;;;;;1.42;100.00;102586.44;7377685;19;20006;-79
2022/12/03 03:21:08;;;;;;;34.75;11.88;;;;;;;1.42;100.00;102579.56;7379663;19;20010;-80
2022/12/03 03:23:37;;;;;;;38.85;13.52;;;;;;;1.38;100.00;102574.94;7379009;19;20018;-76
2022/12/03 03:26:11;;;;;;;31.98;12.70;;;;;;;1.46;100.00;102579.03;7378390;19;20014;-76
2022/12/03 03:28:43;;;;;;;;;;;;;;;1.51;100.00;102575.13;7376274;19;20513;-76
2022/12/03 03:31:16;;;;;;;29.27;11.65;;;;;;;1.45;100.00;102569.47;7376029;19;19942;-76
2022/12/03 03:33:49;;;;;;;36.13;14.02;;;;;;;1.43;100.00;102576.22;7376444;19;20014;-80
2022/12/03 03:36:21;;;;;;;31.27;12.93;;;;;;;1.42;100.00;102577.00;7379535;19;20031;-80
2022/12/03 03:38:51;;;;;;;35.72;13.18;;;;;;;1.47;100.00;102572.19;7377537;19;20014;-77
2022/12/03 03:41:24;;;;;;;25.08;8.52;;;;;;;1.53;100.00;102568.38;7379817;19;20825;-76
2022/12/03 03:43:54;;;;;;;38.00;13.85;;;;;;;1.42;100.00;102570.91;7372634;19;20011;-76
2022/12/03 03:46:24;;;;;;;36.28;12.45;;;;;;;1.39;100.00;102569.00;7377692;19;20043;-78
2022/12/03 03:48:54;;;;;;;29.17;11.02;;;;;;;1.41;100.00;102564.84;7378449;19;20086;-77
2022/12/03 03:51:24;;;;;;;30.73;12.57;;;;;;;1.42;100.00;102566.66;7377005;19;20018;-77
2022/12/03 03:53:55;;;;;;;36.60;12.77;;;;;;;1.39;100.00;102562.94;7375149;19;20098;-75
2022/12/03 03:56:27;;;;;;;37.28;11.82;;;;;;;1.43;100.00;102568.44;7380697;19;20499;-75
2022/12/03 03:58:57;;;;;;;32.13;12.68;;;;;;;1.43;100.00;102563.28;7376520;19;20097;-76
2022/12/03 04:01:28;;;;;;;29.70;12.52;;;;;;;1.45;100.00;102564.31;7377576;19;20019;-76
2022/12/03 04:03:58;;;;;;;35.05;12.70;;;;;;;1.45;100.00;102564.31;7380124;19;20010;-79
2022/12/03 04:06:28;;;;;;;36.40;13.82;;;;;;;1.44;100.00;102561.59;7376460;19;20018;-79
2022/12/03 04:08:58;;;;;;;26.20;12.05;;;;;;;1.48;100.00;102555.88;7380489;19;20020;-80
2022/12/03 04:14:12;;;;;;;40.38;13.70;;;;;;;1.50;100.00;102544.88;7379626;19;20047;-79
2022/12/03 04:16:42;;;;;;;31.05;12.30;;;;;;;1.45;100.00;102546.19;7377468;19;20018;-80
2022/12/03 04:19:12;;;;;;;31.15;13.20;;;;;;;1.47;100.00;102539.47;7376876;19;20018;-78
2022/12/03 04:24:23;;;;;;;47.30;13.80;;;;;;;1.45;100.00;102534.97;7374892;19;20010;-77
2022/12/03 04:29:38;;;;;;;36.97;14.90;;;;;;;1.44;100.00;102534.06;7373198;19;20018;-76
2022/12/03 04:37:32;;;;;;;29.10;11.93;;;;;;;1.56;100.00;102534.09;7373097;19;20102;-76
2022/12/03 04:40:59;;;;;;;35.30;13.10;;;;;;;1.54;100.00;102526.22;7372768;19;20015;-76
2022/12/03 04:42:55;;;;;;;39.25;13.55;;;;;;;1.48;100.00;102524.84;7373671;19;20018;-77
2022/12/03 04:45:25;;;;;;;32.55;13.55;;;;;;;1.54;100.00;102526.22;7375954;19;20223;-76
2022/12/03 04:47:55;;;;;;;30.77;11.80;;;;;;;1.58;100.00;102523.09;7375602;19;20041;-77
2022/12/03 04:50:25;;;;;;;37.47;13.65;;;;;;;1.60;100.00;102511.19;7374103;19;20006;-77
2022/12/03 04:52:55;;;;;;;40.33;13.40;;;;;;;1.61;100.00;102515.56;7373971;19;20015;-77
2022/12/03 04:55:27;;;;;;;26.65;10.55;;;;;;;1.67;100.00;102519.41;7374463;19;20014;-77
2022/12/03 04:58:01;;;;;;;29.83;11.45;;;;;;;1.59;100.00;102518.81;7374561;19;20098;-77
2022/12/03 05:00:31;;;;;;;35.00;12.43;;;;;;;1.58;100.00;102517.91;7373878;19;20037;-77
2022/12/03 05:03:01;;;;;;;38.83;14.35;;;;;;;1.65;100.00;102524.44;7373813;19;20013;-79
2022/12/03 05:05:31;;;;;;;27.83;11.38;;;;;;;1.64;100.00;102520.97;7373028;19;20039;-76
2022/12/03 05:08:01;;;;;;;40.85;14.13;;;;;;;1.60;100.00;102526.69;7371832;19;20085;-76
2022/12/03 05:10:30;;;;;;;24.10;10.35;;;;;;;1.71;100.00;102513.66;7372549;19;20017;-76
2022/12/03 05:13:03;;;;;;;37.83;11.25;;;;;;;1.63;100.00;102510.50;7373657;19;20011;-76
2022/12/03 05:15:33;;;;;;;38.30;12.48;;;;;;;1.63;100.00;102515.69;7368660;19;20018;-77
2022/12/03 05:18:03;;;;;;;38.97;13.23;;;;;;;1.61;100.00;102512.97;7375246;19;20010;-77
2022/12/03 05:20:42;;;;;;;43.08;14.10;;;;;;;1.59;100.00;102511.97;7373302;19;20018;-77
2022/12/03 05:23:21;;;;;;;40.33;15.20;;;;;;;1.69;100.00;102504.91;7373522;19;20053;-80
2022/12/03 05:25:51;;;;;;;40.42;14.93;;;;;;;1.68;100.00;102504.00;7374371;19;20018;-80
2022/12/03 05:28:24;;;;;;;26.30;12.27;;;;;;;1.72;100.00;102506.03;7374919;19;20014;-80
2022/12/03 05:30:54;;;;;;;40.35;15.30;;;;;;;1.72;100.00;102500.84;7372082;19;20010;-76
2022/12/03 05:33:26;;;;;;;37.85;13.65;;;;;;;1.71;100.00;102511.09;7378801;19;20017;-76
2022/12/03 05:35:58;;;;;;;36.65;14.75;;;;;;;1.70;100.00;102507.59;7370391;19;20063;-79
2022/12/03 05:38:28;;;;;;;32.30;13.57;;;;;;;1.70;100.00;102506.69;7374790;19;20027;-76
2022/12/03 05:41:01;;;;;;;32.42;14.70;;;;;;;1.68;100.00;102500.50;7368261;19;20022;-76
2022/12/03 05:43:32;;;;;;;45.00;14.18;;;;;;;1.68;100.00;102498.81;7374015;19;20010;-76
2022/12/03 05:46:01;;;;;;;35.60;13.70;;;;;;;1.66;100.00;102505.56;7372841;19;20002;-77
2022/12/03 05:48:31;;;;;;;38.92;12.70;;;;;;;1.68;100.00;102497.91;7375457;19;20017;-79
2022/12/03 05:51:02;;;;;;;39.42;14.13;;;;;;;1.72;100.00;102493.09;7369813;19;20015;-77
2022/12/03 05:53:34;;;;;;;35.00;12.30;;;;;;;1.71;100.00;102495.56;7369237;19;20010;-76
2022/12/03 05:56:03;;;;;;;35.03;13.07;;;;;;;1.76;100.00;102483.88;7372330;19;20411;-79
2022/12/03 05:58:36;;;;;;;30.63;12.30;;;;;;;1.75;100.00;102482.06;7374506;19;20018;-79
2022/12/03 06:01:05;;;;;;;36.65;15.02;;;;;;;1.70;100.00;102480.84;7371053;19;20231;-80
2022/12/03 06:03:35;;;;;;;32.60;14.20;;;;;;;1.75;100.00;102476.91;7371573;19;20014;-82
2022/12/03 06:06:06;;;;;;;34.70;14.18;;;;;;;1.72;100.00;102485.34;7369221;19;20014;-78
2022/12/03 06:08:36;;;;;;;38.20;14.73;;;;;;;1.73;100.00;102481.06;7375166;19;20011;-82
2022/12/03 06:11:06;;;;;;;36.17;14.70;;;;;;;1.71;100.00;102478.34;7373714;19;20352;-80
2022/12/03 06:13:42;;;;;;;40.58;14.82;;;;;;;1.73;100.00;102475.88;7374718;19;20007;-77
2022/12/03 06:16:11;;;;;;;38.42;16.30;;;;;;;1.75;100.00;102480.38;7370244;19;20014;-75
2022/12/03 06:18:47;;;;;;;35.97;13.52;;;;;;;1.77;100.00;102481.41;7374132;19;20011;-79
2022/12/03 06:21:20;;;;;;;28.75;11.48;;;;;;;1.78;100.00;102469.38;7372610;19;20014;-80
2022/12/03 06:23:49;;;;;;;30.55;13.48;;;;;;;1.74;100.00;102470.84;7375824;19;20098;-82
2022/12/03 06:26:20;;;;;;;33.13;13.75;;;;;;;1.75;100.00;102467.47;7374603;19;20025;-80
2022/12/03 06:28:53;;;;;;;41.20;13.63;;;;;;;1.74;100.00;102459.59;7376812;19;20362;-76
2022/12/03 06:31:23;;;;;;;33.28;12.43;;;;;;;1.74;100.00;102467.34;7374545;19;20014;-77
2022/12/03 06:33:54;;;;;;;31.17;12.70;;;;;;;1.74;100.00;102460.47;7368721;19;20507;-79
2022/12/03 06:36:24;;;;;;;37.10;14.80;;;;;;;1.72;100.00;102456.88;7373642;19;20015;-80
2022/12/03 06:38:55;;;;;;;36.47;16.10;;;;;;;1.73;100.00;102460.38;7369815;19;20007;-78
2022/12/03 06:41:26;;;;;;;35.65;12.27;;;;;;;1.74;100.00;102452.72;7371284;19;20082;-77
2022/12/03 06:43:59;;;;;;;35.95;13.93;;;;;;;1.74;100.00;102454.41;7372704;19;20015;-76
2022/12/03 06:46:29;;;;;;;35.03;13.75;;;;;;;1.74;100.00;102457.91;7371007;19;20018;-81
2022/12/03 06:48:59;;;;;;;37.55;15.93;;;;;;;1.71;100.00;102451.59;7370703;19;20010;-79
2022/12/03 06:51:30;;;;;;;32.08;12.65;;;;;;;1.75;100.00;102463.97;7374077;19;20003;-77
2022/12/03 06:54:02;;;;;;;30.52;12.75;;;;;;;1.78;100.00;102469.38;7365228;19;20574;-79
2022/12/03 06:56:36;;;;;;;29.85;15.10;;;;;;;1.85;100.00;102464.78;7369835;19;20541;-77
2022/12/03 06:59:16;;;;;;;29.45;11.90;;;;;;;1.85;100.00;102459.59;7372767;19;20090;-79
2022/12/03 07:01:51;;;;;;;20.80;10.32;;;;;;;1.87;100.00;102457.13;7371026;19;20010;-80
2022/12/03 07:04:22;;;;;;;35.50;14.38;;;;;;;1.78;100.00;102461.63;7371285;19;20047;-76
2022/12/03 07:06:53;;;;;;;36.75;13.95;;;;;;;1.81;100.00;102460.16;7371529;19;20059;-80
2022/12/03 07:09:23;;;;;;;36.17;15.15;;;;;;;1.85;100.00;102467.34;7367824;19;20491;-77
2022/12/03 07:11:53;;;;;;;37.05;13.98;;;;;;;1.79;100.00;102468.59;7369951;19;20151;-77
2022/12/03 07:14:26;;;;;;;37.05;15.40;;;;;;;1.78;100.00;102466.78;7368917;19;20211;-77
2022/12/03 07:16:56;;;;;;;33.10;13.30;;;;;;;1.77;100.00;102472.75;7368049;19;20018;-76
2022/12/03 07:19:26;;;;;;;32.63;14.95;;;;;;;1.82;100.00;102474.00;7369660;19;20003;-80
2022/12/03 07:22:01;;;;;;;29.27;11.95;;;;;;;1.80;100.00;102476.47;7366536;19;20069;-77
2022/12/03 07:24:31;;;;;;;33.53;14.35;;;;;;;1.79;100.00;102469.50;7367597;19;20697;-77
2022/12/03 07:27:01;;;;;;;37.22;13.73;;;;;;;1.79;100.00;102474.66;7374147;19;20014;-80
2022/12/03 07:29:34;;;;;;;41.08;14.10;;;;;;;1.71;100.00;102478.34;7365934;19;20015;-77
2022/12/03 07:32:04;;;;;;;32.07;12.10;;;;;;;1.74;100.00;102485.44;7368495;19;20027;-78
2022/12/03 07:34:34;;;;;;;36.92;14.25;;;;;;;1.68;100.00;102477.22;7368371;19;20010;-76
2022/12/03 07:37:06;;;;;;;44.25;14.93;;;;;;;1.73;100.00;102481.97;7363316;19;20015;-80
2022/12/03 07:39:39;;;;;;;43.88;15.48;;;;;;;1.69;100.00;102481.63;7368915;19;20029;-81
2022/12/03 07:42:12;;;;;;;43.88;16.55;;;;;;;1.64;100.00;102481.28;7364335;19;20010;-78
2022/12/03 07:44:44;;;;;;;37.80;15.73;;;;;;;1.67;100.00;102472.84;7371156;19;20081;-78
2022/12/03 07:47:14;;;;;;;44.08;17.58;;;;;;;1.65;100.00;102477.91;7365270;19;20019;-80
2022/12/03 07:49:44;;;;;;;42.97;16.23;;;;;;;1.63;100.00;102477.78;7368942;19;20033;-79
2022/12/03 07:52:14;;;;;;;39.58;15.15;;;;;;;1.66;100.00;102476.22;7369592;19;20129;-80
2022/12/03 07:54:43;;;;;;;45.95;16.52;;;;;;;1.70;100.00;102476.56;7366208;19;20163;-80
2022/12/03 07:57:13;;;;;;;41.63;15.82;;;;;;;1.70;100.00;102470.50;7366002;19;20018;-76
2022/12/03 07:59:47;;;;;;;32.58;15.57;;;;;;;1.72;100.00;102466.34;7374106;19;20415;-80
2022/12/03 08:02:17;;;;;;;44.72;16.05;;;;;;;1.64;100.00;102471.81;7374855;19;20078;-80
2022/12/03 08:04:50;;;;;;;36.70;16.00;;;;;;;1.64;100.00;102469.25;7371342;19;20064;-76
2022/12/03 08:07:20;;;;;;;36.83;14.43;;;;;;;1.70;100.00;102471.38;6460366;19;17865107;-79
2022/12/03 08:09:51;;;;;;;43.00;16.10;;;;;;;1.74;100.00;102462.16;7379398;19;20334;-80
2022/12/03 08:12:38;;;;;;;45.65;17.27;;;;;;;1.70;100.00;102465.31;7374117;19;20017;-78
2022/12/03 08:15:17;;;;;;;33.33;13.57;;;;;;;1.77;100.00;102452.94;7376778;19;20018;-76
2022/12/03 08:17:49;;;;;;;37.72;14.00;;;;;;;1.71;100.00;102461.94;7375416;19;20019;-76
2022/12/03 08:20:21;;;;;;;39.65;14.65;;;;;;;1.66;100.00;102464.19;7367249;19;20023;-77
2022/12/03 08:22:53;;;;;;;46.28;16.55;;;;;;;1.69;100.00;102466.09;7375954;19;20022;-77
2022/12/03 08:25:25;;;;;;;33.58;15.40;;;;;;;1.73;100.00;102465.53;7373292;19;20082;-76
2022/12/03 08:27:58;;;;;;;36.35;14.07;;;;;;;1.74;100.00;102463.06;7370650;19;20006;-76
2022/12/03 08:30:31;;;;;;;44.78;16.95;;;;;;;1.75;100.00;102464.88;7373032;19;20026;-76
2022/12/03 08:33:01;;;;;;;33.13;14.30;;;;;;;1.74;100.00;102462.16;7374657;19;20073;-77
2022/12/03 08:35:32;;;;;;;44.38;16.25;;;;;;;1.73;100.00;102458.69;7374376;19;20006;-76
2022/12/03 08:38:07;;;;;;;30.90;14.40;;;;;;;1.73;100.00;102460.38;7377134;19;20014;-77
2022/12/03 08:40:39;;;;;;;40.33;15.32;;;;;;;1.72;100.00;102458.56;7372479;19;20011;-77
2022/12/03 08:43:19;;;;;;;32.65;13.27;;;;;;;1.75;100.00;102458.81;7371242;19;20006;-76
2022/12/03 08:45:53;;;;;;;39.28;14.13;;;;;;;1.75;100.00;102459.69;7374598;19;20015;-77
2022/12/03 08:48:27;;;;;;;;;;;;;;;1.85;100.00;102449.25;7375090;19;20090;-75
2022/12/03 08:50:59;;;;;;;41.45;16.70;;;;;;;1.72;100.00;102453.41;7377363;19;20518;-78
2022/12/03 08:53:34;;;;;;;42.45;15.48;;;;;;;1.72;100.00;102443.06;7370626;19;20082;-80
2022/12/03 08:56:07;;;;;;;39.90;16.10;;;;;;;1.78;100.00;102447.00;7375969;19;20010;-80
2022/12/03 08:58:42;;;;;;;34.30;15.07;;;;;;;1.72;100.00;102443.06;7374742;19;20022;-81
2022/12/03 09:01:30;;;;;;;36.80;15.00;;;;;;;1.76;100.00;102451.16;7373413;19;20287;-80
2022/12/03 09:04:17;;;;;;;39.33;17.48;;;;;;;1.74;100.00;102446.66;7375171;19;20002;-80
2022/12/03 09:06:47;;;;;;;33.75;14.35;;;;;;;1.70;100.00;102452.38;7378598;19;20022;-80
2022/12/03 09:09:17;;;;;;;42.08;15.70;;;;;;;1.75;100.00;102449.34;7376353;19;20049;-79
2022/12/03 09:11:47;;;;;;;39.85;17.27;;;;;;;1.67;100.00;102450.47;7377712;19;20131;-79
2022/12/03 09:14:20;;;;;;;54.00;18.17;;;;;;;1.62;100.00;102441.47;7373212;19;20017;-80
2022/12/03 09:16:54;;;;;;;37.83;16.02;;;;;;;1.70;100.00;102450.69;7376995;19;20039;-80
2022/12/03 09:19:25;;;;;;;35.85;15.23;;;;;;;1.71;100.00;102449.00;7372784;19;20014;-80
2022/12/03 09:21:55;;;;;;;34.63;15.25;;;;;;;1.61;100.00;102448.31;7369632;19;20018;-80
2022/12/03 09:24:24;;;;;;;38.42;16.45;;;;;;;1.57;100.00;102446.28;7372248;19;20026;-81
2022/12/03 09:26:54;;;;;;;39.05;15.70;;;;;;;1.61;100.00;102445.75;7372303;19;20077;-79
2022/12/03 09:29:24;;;;;;;28.23;11.85;;;;;;;1.68;100.00;102446.19;7374103;19;20014;-79
2022/12/03 09:31:56;;;;;;;34.28;13.80;;;;;;;1.71;100.00;102441.25;7372992;19;20553;-79
2022/12/03 09:34:26;;;;;;;45.78;15.57;;;;;;;1.68;100.00;102444.50;7377296;19;20014;-79
2022/12/03 09:36:56;;;;;;;39.38;16.27;;;;;;;1.67;100.00;102436.63;7373618;19;20006;-80
2022/12/03 09:39:25;;;;;;;32.15;15.10;;;;;;;1.68;100.00;102451.38;7372680;19;20047;-79
2022/12/03 09:41:57;;;;;;;42.53;16.83;;;;;;;1.72;100.00;102443.06;7374684;19;20010;-75
2022/12/03 09:44:27;;;;;;;38.42;13.82;;;;;;;1.71;100.00;102452.50;7375228;19;20018;-75
2022/12/03 09:47:01;;;;;;;30.48;13.45;;;;;;;1.72;100.00;102448.22;7374429;19;20031;-75
2022/12/03 09:49:32;;;;;;;;;;;;;;;1.69;100.00;102448.00;7371577;19;20017;-75
2022/12/03 09:52:04;;;;;;;38.60;15.32;;;;;;;1.67;100.00;102444.41;7374141;19;19933;-75
2022/12/03 09:54:36;;;;;;;42.83;16.40;;;;;;;1.65;100.00;102441.69;7371715;19;20023;-75
2022/12/03 09:57:13;;;;;;;40.00;15.45;;;;;;;1.69;100.00;102443.72;7371452;19;20015;-75
2022/12/03 09:59:43;;;;;;;38.60;15.98;;;;;;;1.72;100.00;102450.81;7371972;19;20006;-75
2022/12/03 10:02:22;;;;;;;36.92;14.38;;;;;;;1.72;100.00;102445.63;7369626;19;20620;-75
2022/12/03 10:04:54;;;;;;;23.92;10.65;;;;;;;1.68;100.00;102446.19;7371665;19;20086;-77
2022/12/03 10:07:24;;;;;;;38.70;14.60;;;;;;;1.63;100.00;102451.03;7369206;19;20015;-75
2022/12/03 10:09:54;;;;;;;31.95;12.07;;;;;;;1.64;100.00;102443.38;7376503;19;20019;-76
2022/12/03 10:12:26;;;;;;;41.40;16.30;;;;;;;1.64;100.00;102447.66;7375181;19;20030;-76
2022/12/03 10:14:56;;;;;;;34.25;13.38;;;;;;;1.64;100.00;102455.41;7374832;19;20022;-76
2022/12/03 10:17:32;;;;;;;42.80;16.00;;;;;;;1.57;100.00;102448.88;7368139;19;20010;-75
2022/12/03 10:20:03;;;;;;;35.80;14.32;;;;;;;1.68;100.00;102451.38;7372875;19;20392;-76
2022/12/03 10:22:36;;;;;;;36.92;15.25;;;;;;;1.61;100.00;102445.75;7371505;19;20022;-76
2022/12/03 10:25:09;;;;;;;42.90;16.00;;;;;;;1.67;100.00;102439.22;7369436;19;20017;-76
2022/12/03 10:27:38;;;;;;;36.80;14.00;;;;;;;1.49;100.00;102436.16;7367605;19;20014;-75
2022/12/03 10:30:22;;;;;;;44.25;15.95;;;;;;;1.46;100.00;102436.84;7367768;19;20468;-75
2022/12/03 10:32:54;;;;;;;50.95;17.85;;;;;;;1.46;100.00;102426.50;7365696;19;20071;-76
2022/12/03 10:35:26;;;;;;;45.17;16.77;;;;;;;1.49;100.00;102433.56;7366768;19;20010;-75
2022/12/03 10:38:03;;;;;;;44.70;17.05;;;;;;;1.48;100.00;102424.91;7369675;19;20021;-75
2022/12/03 10:40:34;;;;;;;43.00;15.55;;;;;;;1.47;100.00;102411.88;7368360;19;20022;-75
2022/12/03 10:43:22;;;;;;;45.95;15.98;;;;;;;1.43;100.00;102415.91;7367162;19;20014;-76
2022/12/03 10:46:11;;;;;;;47.15;17.08;;;;;;;1.52;100.00;102419.19;7368347;19;20025;-76
2022/12/03 10:48:43;;;;;;;46.08;18.00;;;;;;;1.46;100.00;102412.66;7371065;19;20066;-76
2022/12/03 10:51:19;;;;;;;43.00;15.02;;;;;;;1.45;100.00;102410.88;7365099;19;20041;-76
2022/12/03 10:53:51;;;;;;;39.67;15.43;;;;;;;1.42;100.00;102406.38;7369297;19;20141;-76
2022/12/03 10:56:25;;;;;;;41.13;16.20;;;;;;;1.42;100.00;102401.19;7372619;19;20135;-76
2022/12/03 10:58:56;;;;;;;46.55;16.55;;;;;;;1.44;100.00;102398.72;7366590;19;20098;-76
2022/12/03 11:01:28;;;;;;;34.63;15.05;;;;;;;1.43;100.00;102397.81;7363572;19;20053;-76
2022/12/03 11:04:06;;;;;;;45.50;15.65;;;;;;;1.39;100.00;102390.63;7368523;19;20018;-76
2022/12/03 11:06:36;;;;;;;44.15;18.27;;;;;;;1.35;100.00;102393.75;7369073;19;20019;-76
2022/12/03 11:09:06;;;;;;;37.53;15.00;;;;;;;1.42;100.00;102390.84;7369399;19;20044;-76
2022/12/03 11:11:38;;;;;;;33.88;13.70;;;;;;;1.44;100.00;102388.38;7362314;19;20007;-76
2022/12/03 11:14:07;;;;;;;39.80;15.88;;;;;;;1.42;100.00;102387.38;7364870;19;20362;-76
2022/12/03 11:17:09;;;;;;;44.55;16.15;;;;;;;1.44;100.00;102385.78;7365960;19;20010;-76
2022/12/03 11:19:53;;;;;;;42.13;16.30;;;;;;;1.44;100.00;102378.94;7359940;19;20003;-75
2022/12/03 11:22:41;;;;;;;45.80;18.33;;;;;;;1.38;100.00;102375.91;7367834;19;20024;-76
2022/12/03 11:25:49;;;;;;;40.15;14.05;;;;;;;1.47;100.00;102367.94;7363348;19;20093;-76
2022/12/03 11:28:38;;;;;;;40.38;15.98;;;;;;;1.47;100.00;102370.50;7370716;19;20578;-76
2022/12/03 11:31:13;;;;;;;43.47;17.25;;;;;;;1.44;100.00;102367.69;7371689;19;20015;-76
2022/12/03 11:33:43;;;;;;;43.08;16.27;;;;;;;1.42;100.00;102365.00;7374260;19;20348;-76
2022/12/03 11:36:18;;;;;;;42.33;16.38;;;;;;;1.40;100.00;102363.09;7378651;19;20011;-76
2022/12/03 11:39:10;;;;;;;40.15;16.27;;;;;;;1.40;100.00;102357.91;7378782;19;20734;-76
2022/12/03 11:41:40;;;;;;;44.22;17.27;;;;;;;1.43;100.00;102356.47;7382360;19;20436;-75
2022/12/03 11:44:31;;;;;;;49.50;18.85;;;;;;;1.38;100.00;102360.38;7378487;19;20010;-76
2022/12/03 11:47:10;;;;;;;45.53;14.82;;;;;;;1.37;100.00;102353.41;7380388;19;20006;-76
2022/12/03 11:49:47;;;;;;;42.45;15.85;;;;;;;1.37;100.00;102350.84;7377858;19;20074;-75
2022/12/03 11:52:30;;;;;;;46.80;17.65;;;;;;;1.37;100.00;102340.50;7377991;19;20087;-78